Time;durP1;ratioP1;P1;durP2;ratioP2;P2;SDS_P1;SDS_P2;PMS_P1;PMS_P2;Temp;Humidity;BMP_temperature;BMP_pressure;BME280_temperature;BME280_humidity;BME280_pressure;Samples;Min_cycle;Max_cycle;Signal;HPM_P1;HPM_P2
2024/04/15 00:01:27;;;;;;;3.55;1.73;;;18.70;99.90;;;;;;5401472;26;19995;-60
2024/04/15 00:03:54;;;;;;;3.58;1.40;;;18.80;99.90;;;;;;5392661;26;20015;-60
2024/04/15 00:06:21;;;;;;;2.05;1.48;;;18.80;99.90;;;;;;5405488;26;20018;-60
2024/04/15 00:08:48;;;;;;;4.10;1.90;;;18.90;99.90;;;;;;5404844;26;20004;-60
2024/04/15 00:11:15;;;;;;;4.85;1.60;;;18.90;99.90;;;;;;5415469;21;20015;-62
2024/04/15 00:13:42;;;;;;;6.03;1.55;;;18.90;99.90;;;;;;5335669;26;20029;-60
2024/04/15 00:16:10;;;;;;;5.25;1.88;;;18.90;99.90;;;;;;5346390;26;20002;-61
2024/04/15 00:18:37;;;;;;;4.85;1.60;;;18.80;99.90;;;;;;5343633;26;20023;-61
2024/04/15 00:21:10;;;;;;;2.92;1.58;;;18.90;99.90;;;;;;5346910;26;20004;-61
2024/04/15 00:23:37;;;;;;;2.55;1.30;;;18.90;99.90;;;;;;5357902;26;20473;-62
2024/04/15 00:26:04;;;;;;;2.63;1.65;;;18.90;99.90;;;;;;5354490;26;20000;-62
2024/04/15 00:28:30;;;;;;;3.08;1.50;;;18.90;99.90;;;;;;5355414;26;20089;-61
2024/04/15 00:30:57;;;;;;;3.17;1.70;;;19.00;99.90;;;;;;5351736;26;20509;-62
2024/04/15 00:33:24;;;;;;;5.65;2.28;;;19.00;99.90;;;;;;5355116;26;20393;-61
2024/04/15 00:35:51;;;;;;;3.25;2.00;;;18.80;99.90;;;;;;5334144;26;20367;-61
2024/04/15 00:38:18;;;;;;;5.13;2.28;;;18.40;99.90;;;;;;5359805;26;20440;-60
2024/04/15 00:40:45;;;;;;;5.20;1.83;;;18.20;99.90;;;;;;5359448;26;20016;-61
2024/04/15 00:43:12;;;;;;;3.13;2.00;;;17.80;99.90;;;;;;5359712;26;20078;-60
2024/04/15 00:45:39;;;;;;;3.28;2.60;;;17.50;99.90;;;;;;5363899;26;20585;-60
2024/04/15 00:48:11;;;;;;;3.13;2.00;;;17.40;99.90;;;;;;5361718;26;20019;-59
2024/04/15 00:50:41;;;;;;;4.15;1.98;;;17.40;99.90;;;;;;5360948;26;19996;-61
2024/04/15 00:53:10;;;;;;;2.72;2.28;;;17.40;99.90;;;;;;5369008;26;20005;-59
2024/04/15 00:55:37;;;;;;;3.97;2.60;;;17.40;99.90;;;;;;5364469;26;20012;-60
2024/04/15 00:58:05;;;;;;;4.63;2.53;;;17.50;99.90;;;;;;5359515;26;20024;-58
2024/04/15 01:00:33;;;;;;;5.00;2.25;;;17.50;99.90;;;;;;5360615;26;20028;-58
2024/04/15 01:03:00;;;;;;;3.53;2.42;;;17.50;99.90;;;;;;5359642;26;20025;-59
2024/04/15 01:05:27;;;;;;;3.53;2.00;;;17.40;99.90;;;;;;5362670;26;19997;-61
2024/04/15 01:07:54;;;;;;;3.58;2.17;;;17.40;99.90;;;;;;5362145;26;20008;-60
2024/04/15 01:10:21;;;;;;;4.13;1.80;;;17.30;99.90;;;;;;5361328;26;20000;-62
2024/04/15 01:12:48;;;;;;;4.32;2.08;;;17.20;99.90;;;;;;5359777;26;20001;-62
2024/04/15 01:15:15;;;;;;;5.50;3.08;;;17.20;99.90;;;;;;5356989;26;20004;-61
2024/04/15 01:17:42;;;;;;;3.72;2.22;;;17.20;99.90;;;;;;5358966;26;20023;-61
2024/04/15 01:20:09;;;;;;;3.78;1.77;;;17.20;99.90;;;;;;5366574;26;20086;-61
2024/04/15 01:22:54;;;;;;;2.97;2.20;;;17.20;99.90;;;;;;5361154;26;20011;-62
2024/04/15 01:25:21;;;;;;;3.92;2.25;;;17.20;99.90;;;;;;5361819;26;19996;-61
2024/04/15 01:27:48;;;;;;;4.35;2.85;;;17.20;99.90;;;;;;5358772;26;20013;-61
2024/04/15 01:30:15;;;;;;;4.65;2.70;;;17.20;99.90;;;;;;5367339;26;20035;-61
2024/04/15 01:32:42;;;;;;;3.60;2.60;;;17.20;99.90;;;;;;5357036;26;20004;-61
2024/04/15 01:35:08;;;;;;;3.05;1.92;;;17.30;99.90;;;;;;5358071;26;20456;-62
2024/04/15 01:37:35;;;;;;;6.38;2.17;;;17.20;99.90;;;;;;5361460;26;20000;-61
2024/04/15 01:40:02;;;;;;;6.63;2.47;;;17.20;99.90;;;;;;5356223;26;20001;-62
2024/04/15 01:42:29;;;;;;;4.22;2.38;;;17.10;99.90;;;;;;5365972;26;20078;-62
2024/04/15 01:44:56;;;;;;;5.53;2.10;;;17.10;99.90;;;;;;5364106;26;20017;-60
2024/04/15 01:47:23;;;;;;;4.80;1.98;;;17.00;99.90;;;;;;5363864;26;20634;-61
2024/04/15 01:49:50;;;;;;;4.78;2.30;;;16.90;99.90;;;;;;5365833;26;20017;-61
2024/04/15 01:52:18;;;;;;;4.75;2.40;;;16.90;99.90;;;;;;5363053;26;20008;-62
2024/04/15 01:54:45;;;;;;;4.97;1.95;;;16.90;99.90;;;;;;5362537;26;20522;-61
2024/04/15 01:57:11;;;;;;;4.70;2.63;;;16.80;99.90;;;;;;5370570;26;20012;-61
2024/04/15 01:59:38;;;;;;;4.65;2.33;;;16.80;99.90;;;;;;5370250;26;20004;-61
2024/04/15 02:02:05;;;;;;;2.95;2.47;;;16.70;99.90;;;;;;5357720;26;20000;-61
2024/04/15 02:04:32;;;;;;;2.47;1.88;;;16.70;99.90;;;;;;5365840;26;20693;-61
2024/04/15 02:06:59;;;;;;;2.95;2.33;;;16.70;99.90;;;;;;5366535;26;20317;-61
2024/04/15 02:09:26;;;;;;;2.83;2.33;;;16.70;99.90;;;;;;5361442;26;20009;-62
2024/04/15 02:11:53;;;;;;;4.68;2.53;;;16.80;99.90;;;;;;5352859;26;20075;-62
2024/04/15 02:14:19;;;;;;;6.22;2.45;;;16.80;99.90;;;;;;5365624;26;20004;-61
2024/04/15 02:16:47;;;;;;;4.22;2.50;;;16.80;99.90;;;;;;5369493;26;20043;-62
2024/04/15 02:19:14;;;;;;;4.88;2.30;;;16.80;99.90;;;;;;5359456;26;20093;-61
2024/04/15 02:21:41;;;;;;;3.72;2.60;;;16.80;99.90;;;;;;5362956;26;19997;-62
2024/04/15 02:24:07;;;;;;;5.82;2.67;;;16.80;99.90;;;;;;5361457;26;20039;-62
2024/04/15 02:26:34;;;;;;;4.90;2.40;;;16.80;99.90;;;;;;5360531;26;20007;-59
2024/04/15 02:29:01;;;;;;;4.88;2.30;;;16.90;99.90;;;;;;5363772;26;20016;-61
2024/04/15 02:31:28;;;;;;;3.47;2.20;;;16.90;99.90;;;;;;5368466;26;20457;-61
2024/04/15 02:33:55;;;;;;;2.67;2.13;;;16.90;99.90;;;;;;5370170;26;20352;-61
2024/04/15 02:36:22;;;;;;;4.72;2.53;;;16.90;99.90;;;;;;5361306;26;20597;-61
2024/04/15 02:38:49;;;;;;;6.07;2.63;;;16.80;99.90;;;;;;5357927;26;20009;-59
2024/04/15 02:41:16;;;;;;;6.82;2.35;;;16.70;99.90;;;;;;5363166;26;20077;-60
2024/04/15 02:43:43;;;;;;;6.70;2.63;;;16.80;99.90;;;;;;5361115;26;20001;-62
2024/04/15 02:46:10;;;;;;;2.85;2.55;;;16.70;99.90;;;;;;5363862;26;19996;-60
2024/04/15 02:48:37;;;;;;;2.70;2.50;;;16.70;99.90;;;;;;5366249;26;20004;-60
2024/04/15 02:51:04;;;;;;;4.20;2.67;;;16.60;99.90;;;;;;5361176;26;20337;-61
2024/04/15 02:53:32;;;;;;;4.45;2.38;;;16.50;99.90;;;;;;5356539;26;20009;-61
2024/04/15 02:56:00;;;;;;;6.25;3.10;;;16.40;99.90;;;;;;5360248;26;20362;-62
2024/04/15 02:58:27;;;;;;;7.30;2.50;;;16.40;99.90;;;;;;5357265;26;20001;-62
2024/04/15 03:00:55;;;;;;;3.92;2.72;;;16.30;99.90;;;;;;5364687;26;20011;-61
2024/04/15 03:03:22;;;;;;;4.47;2.70;;;16.20;99.90;;;;;;5366562;26;20029;-61
2024/04/15 03:05:49;;;;;;;3.88;2.58;;;16.20;99.90;;;;;;5369700;26;20078;-61
2024/04/15 03:08:16;;;;;;;8.07;3.35;;;16.20;99.90;;;;;;5356370;26;20000;-61
2024/04/15 03:10:43;;;;;;;4.28;2.22;;;16.20;99.90;;;;;;5353874;26;20005;-62
2024/04/15 03:13:10;;;;;;;2.95;2.33;;;16.20;99.90;;;;;;5361803;26;20012;-61
2024/04/15 03:15:37;;;;;;;6.55;2.70;;;16.20;99.90;;;;;;5361148;26;20341;-62
2024/04/15 03:18:04;;;;;;;3.35;2.53;;;16.20;99.90;;;;;;5368907;26;20015;-61
2024/04/15 03:20:31;;;;;;;4.13;2.50;;;16.20;99.90;;;;;;5359774;26;20464;-60
2024/04/15 03:22:58;;;;;;;5.30;2.67;;;16.20;99.90;;;;;;5361657;26;20073;-61
2024/04/15 03:25:25;;;;;;;5.60;2.40;;;16.20;99.90;;;;;;5369972;26;20027;-61
2024/04/15 03:27:52;;;;;;;6.93;2.55;;;16.30;99.90;;;;;;5370798;26;20000;-61
2024/04/15 03:30:19;;;;;;;3.33;2.53;;;16.30;99.90;;;;;;5355340;26;20000;-61
2024/04/15 03:32:45;;;;;;;3.30;2.47;;;16.30;99.90;;;;;;5357651;26;20011;-61
2024/04/15 03:35:14;;;;;;;6.20;2.80;;;16.30;99.90;;;;;;5362237;26;20031;-62
2024/04/15 03:37:42;;;;;;;9.38;2.75;;;16.20;99.90;;;;;;5360284;26;20080;-61
2024/04/15 03:40:09;;;;;;;5.18;2.72;;;16.20;99.90;;;;;;5356177;26;20441;-61
2024/04/15 03:42:37;;;;;;;4.97;2.60;;;16.20;99.90;;;;;;5347515;26;20124;-61
2024/04/15 03:45:04;;;;;;;3.88;2.63;;;16.20;99.90;;;;;;5329517;26;20090;-61
2024/04/15 03:47:31;;;;;;;6.75;3.08;;;16.20;99.90;;;;;;5356849;26;20004;-61
2024/04/15 03:49:58;;;;;;;5.57;2.53;;;16.20;99.90;;;;;;5366591;26;20005;-61
2024/04/15 03:52:25;;;;;;;6.55;3.70;;;16.20;99.90;;;;;;5361175;26;20039;-61
2024/04/15 03:54:51;;;;;;;5.10;3.25;;;16.20;99.90;;;;;;5371425;26;20019;-60
2024/04/15 03:57:18;;;;;;;3.50;3.17;;;16.30;99.90;;;;;;5362851;26;20039;-61
2024/04/15 03:59:45;;;;;;;5.45;3.72;;;16.20;99.90;;;;;;5356823;26;20342;-61
2024/04/15 04:02:12;;;;;;;5.78;3.50;;;16.20;99.90;;;;;;5362344;26;20082;-61
2024/04/15 04:04:40;;;;;;;5.40;3.40;;;16.10;99.90;;;;;;5366442;26;20016;-61
2024/04/15 04:07:07;;;;;;;5.22;3.60;;;16.00;99.90;;;;;;5346884;26;20462;-60
2024/04/15 04:09:34;;;;;;;4.43;3.55;;;15.90;99.90;;;;;;5330867;26;20580;-61
2024/04/15 04:12:01;;;;;;;6.05;3.38;;;15.70;99.90;;;;;;5349474;26;19996;-61
2024/04/15 04:14:28;;;;;;;6.07;3.90;;;15.60;99.90;;;;;;5361865;26;20000;-61
2024/04/15 04:16:55;;;;;;;7.70;4.15;;;15.50;99.90;;;;;;5370012;26;20000;-61
2024/04/15 04:19:22;;;;;;;5.28;3.95;;;15.50;99.90;;;;;;5371443;26;20012;-61
2024/04/15 04:21:49;;;;;;;5.50;3.78;;;15.40;99.90;;;;;;5366455;26;20020;-61
2024/04/15 04:24:17;;;;;;;6.90;3.83;;;15.40;99.90;;;;;;5358579;26;20053;-61
2024/04/15 04:26:43;;;;;;;5.53;4.18;;;15.30;99.90;;;;;;5366148;26;20598;-58
2024/04/15 04:29:10;;;;;;;6.80;4.55;;;15.40;99.90;;;;;;5356054;26;20009;-61
2024/04/15 04:31:38;;;;;;;6.18;3.85;;;15.40;99.90;;;;;;5356878;26;20015;-61
2024/04/15 04:34:05;;;;;;;6.57;4.25;;;15.50;99.90;;;;;;5358443;26;20012;-61
2024/04/15 04:36:32;;;;;;;5.82;4.40;;;15.40;99.90;;;;;;5366276;26;20020;-61
2024/04/15 04:38:58;;;;;;;5.75;3.95;;;15.40;99.90;;;;;;5340558;26;20012;-60
2024/04/15 04:41:25;;;;;;;4.95;3.95;;;15.40;99.90;;;;;;5363828;26;20377;-60
2024/04/15 04:43:53;;;;;;;7.40;3.70;;;15.40;99.90;;;;;;5363232;26;20004;-60
2024/04/15 04:46:20;;;;;;;4.47;3.75;;;15.50;99.90;;;;;;5365179;26;20001;-61
2024/04/15 04:48:47;;;;;;;7.20;4.00;;;15.50;99.90;;;;;;5357750;26;20082;-61
2024/04/15 04:51:13;;;;;;;5.15;3.60;;;15.50;99.90;;;;;;5361533;26;20024;-61
2024/04/15 04:53:40;;;;;;;7.28;3.90;;;15.50;99.90;;;;;;5361712;26;20000;-61
2024/04/15 04:56:13;;;;;;;4.38;3.33;;;15.50;99.90;;;;;;5354331;26;20216;-54
2024/04/15 04:58:43;;;;;;;7.80;3.55;;;15.50;99.90;;;;;;5345638;26;20082;-61
2024/04/15 05:01:11;;;;;;;5.47;3.42;;;15.60;99.90;;;;;;5331465;26;20360;-61
2024/04/15 05:03:41;;;;;;;4.53;3.45;;;15.60;99.90;;;;;;5361777;26;20008;-61
2024/04/15 05:06:09;;;;;;;7.00;3.70;;;15.70;99.90;;;;;;5353925;26;20019;-61
2024/04/15 05:08:37;;;;;;;4.70;4.10;;;15.80;99.90;;;;;;5369766;26;20000;-61
2024/04/15 05:11:04;;;;;;;5.93;3.67;;;15.70;99.90;;;;;;5354641;26;20380;-60
2024/04/15 05:13:32;;;;;;;4.82;4.13;;;15.70;99.90;;;;;;5359885;26;20051;-61
2024/04/15 05:16:09;;;;;;;14.40;4.32;;;15.70;99.90;;;;;;5366921;26;20477;-61
2024/04/15 05:18:38;;;;;;;7.25;3.75;;;15.80;99.90;;;;;;5338401;26;20019;-61
2024/04/15 05:21:16;;;;;;;4.65;3.88;;;15.80;99.90;;;;;;5363843;26;20078;-59
2024/04/15 05:23:44;;;;;;;7.30;4.05;;;15.80;99.90;;;;;;5358749;26;20005;-61
2024/04/15 05:26:10;;;;;;;6.75;4.35;;;15.90;99.90;;;;;;5359147;26;20461;-61
2024/04/15 05:28:37;;;;;;;5.10;3.72;;;15.90;99.90;;;;;;5357845;26;20453;-61
2024/04/15 05:31:04;;;;;;;6.55;3.83;;;15.90;99.90;;;;;;5359058;26;20512;-61
2024/04/15 05:33:32;;;;;;;9.57;4.75;;;16.00;99.90;;;;;;5358377;26;20317;-61
2024/04/15 05:35:58;;;;;;;9.45;4.78;;;16.00;99.90;;;;;;5363557;26;20085;-61
2024/04/15 05:38:26;;;;;;;8.57;4.20;;;16.00;99.90;;;;;;5356320;26;20005;-61
2024/04/15 05:40:53;;;;;;;6.95;4.50;;;15.90;99.90;;;;;;5363257;26;20020;-61
2024/04/15 05:43:20;;;;;;;5.25;4.43;;;15.90;99.90;;;;;;5363857;26;20055;-61
2024/04/15 05:45:47;;;;;;;7.03;4.80;;;15.90;99.90;;;;;;5360331;26;20086;-61
2024/04/15 05:48:15;;;;;;;9.32;4.07;;;15.90;99.90;;;;;;5359091;26;20025;-62
2024/04/15 05:50:42;;;;;;;4.05;3.60;;;16.00;99.90;;;;;;5350400;26;20027;-62
2024/04/15 05:53:09;;;;;;;4.78;3.70;;;16.00;99.90;;;;;;5358053;26;20015;-62
2024/04/15 05:55:37;;;;;;;6.00;3.67;;;16.10;99.90;;;;;;5353127;26;20407;-63
2024/04/15 05:58:04;;;;;;;7.10;3.70;;;16.00;99.90;;;;;;5358371;26;20077;-61
2024/04/15 06:00:31;;;;;;;8.50;4.18;;;16.10;99.90;;;;;;5359268;26;20020;-62
2024/04/15 06:02:58;;;;;;;6.20;3.20;;;16.00;99.90;;;;;;5348813;26;20414;-63
2024/04/15 06:05:25;;;;;;;6.10;3.70;;;16.10;99.90;;;;;;5365559;26;20582;-62
2024/04/15 06:07:52;;;;;;;5.65;3.65;;;16.10;99.90;;;;;;5357056;26;20014;-62
2024/04/15 06:10:19;;;;;;;5.00;3.78;;;16.00;99.90;;;;;;5351631;26;20026;-62
2024/04/15 06:12:47;;;;;;;4.82;3.60;;;16.10;99.90;;;;;;5353620;26;20028;-61
2024/04/15 06:15:15;;;;;;;3.75;3.03;;;16.10;99.90;;;;;;5360883;26;20017;-63
2024/04/15 06:17:41;;;;;;;6.63;4.60;;;16.10;99.90;;;;;;5364091;26;20070;-62
2024/04/15 06:20:09;;;;;;;4.78;3.85;;;16.20;99.90;;;;;;5358374;26;20027;-63
2024/04/15 06:22:36;;;;;;;5.72;3.78;;;16.30;99.90;;;;;;5360008;26;20033;-63
2024/04/15 06:25:04;;;;;;;8.70;5.45;;;16.30;99.90;;;;;;5352215;26;20073;-62
2024/04/15 06:27:31;;;;;;;7.15;3.45;;;16.30;99.90;;;;;;5359012;26;20027;-64
2024/04/15 06:29:58;;;;;;;6.60;5.20;;;16.30;99.90;;;;;;5349838;26;20000;-63
2024/04/15 06:32:24;;;;;;;4.45;3.65;;;16.30;99.90;;;;;;5360028;26;20012;-63
2024/04/15 06:34:51;;;;;;;5.10;3.72;;;16.30;99.90;;;;;;5347568;26;20005;-63
2024/04/15 06:37:18;;;;;;;8.48;3.67;;;16.30;99.90;;;;;;5356697;26;20009;-63
2024/04/15 06:39:45;;;;;;;8.82;3.72;;;16.30;99.90;;;;;;5354439;26;20005;-63
2024/04/15 06:42:12;;;;;;;6.45;4.07;;;16.20;99.90;;;;;;5360373;26;20353;-63
2024/04/15 06:44:39;;;;;;;12.45;4.28;;;16.20;99.90;;;;;;5352703;26;20004;-63
2024/04/15 06:47:06;;;;;;;5.65;4.07;;;16.30;99.90;;;;;;5356452;26;20001;-62
2024/04/15 06:49:33;;;;;;;7.35;4.10;;;16.20;99.90;;;;;;5362890;26;20000;-62
2024/04/15 06:51:59;;;;;;;7.43;4.10;;;16.20;99.90;;;;;;5355744;26;20058;-62
2024/04/15 06:54:26;;;;;;;9.30;3.95;;;16.10;99.90;;;;;;5358594;26;20004;-62
2024/04/15 06:56:53;;;;;;;6.95;4.53;;;16.10;99.90;;;;;;5364608;26;20019;-62
2024/04/15 06:59:20;;;;;;;7.40;4.30;;;16.10;99.90;;;;;;5360157;26;20019;-62
2024/04/15 07:01:47;;;;;;;5.35;3.97;;;16.10;99.90;;;;;;5361372;26;20319;-62
2024/04/15 07:04:14;;;;;;;8.25;4.53;;;16.10;99.90;;;;;;5367538;26;19997;-62
2024/04/15 07:06:41;;;;;;;7.63;4.15;;;16.10;99.90;;;;;;5359864;26;20028;-62
2024/04/15 07:09:12;;;;;;;9.00;5.13;;;16.00;99.90;;;;;;5353926;26;20044;-62
2024/04/15 07:11:39;;;;;;;7.75;4.50;;;16.00;99.90;;;;;;5351852;26;20411;-62
2024/04/15 07:14:06;;;;;;;8.73;4.57;;;16.00;99.90;;;;;;5359227;26;20009;-61
2024/04/15 07:16:33;;;;;;;6.30;4.28;;;16.10;99.90;;;;;;5364153;26;20004;-62
2024/04/15 07:19:00;;;;;;;6.88;4.95;;;16.00;99.90;;;;;;5362446;26;20000;-62
2024/04/15 07:21:27;;;;;;;8.07;4.68;;;16.00;99.90;;;;;;5368215;26;20522;-59
2024/04/15 07:23:54;;;;;;;8.07;5.30;;;15.90;99.90;;;;;;5327557;26;20000;-61
2024/04/15 07:26:21;;;;;;;8.55;4.82;;;15.80;99.90;;;;;;5361510;26;20015;-59
2024/04/15 07:28:48;;;;;;;7.53;4.85;;;15.70;99.90;;;;;;5355007;26;20055;-60
2024/04/15 07:31:15;;;;;;;12.35;5.55;;;15.90;99.90;;;;;;5333666;26;20012;-62
2024/04/15 07:33:41;;;;;;;11.40;5.50;;;15.90;99.90;;;;;;5348803;26;20004;-62
2024/04/15 07:36:08;;;;;;;6.18;5.07;;;16.00;99.90;;;;;;5361499;26;20001;-62
2024/04/15 07:38:35;;;;;;;10.98;5.40;;;16.00;99.90;;;;;;5362843;26;20570;-61
2024/04/15 07:41:02;;;;;;;11.80;6.10;;;16.20;99.90;;;;;;5358518;26;20028;-61
2024/04/15 07:43:29;;;;;;;13.57;5.45;;;16.40;99.90;;;;;;5369689;26;20019;-62
2024/04/15 07:45:56;;;;;;;9.02;4.85;;;16.60;99.90;;;;;;5352435;26;20020;-61
2024/04/15 07:48:23;;;;;;;7.60;4.70;;;16.70;99.90;;;;;;5365430;26;20331;-63
2024/04/15 07:50:50;;;;;;;7.75;4.32;;;16.70;99.90;;;;;;5361662;26;21614;-63
2024/04/15 07:53:17;;;;;;;6.70;4.40;;;16.80;99.90;;;;;;5334129;26;20000;-63
2024/04/15 07:55:47;;;;;;;8.25;4.93;;;16.70;99.90;;;;;;5359885;26;19997;-62
2024/04/15 07:58:14;;;;;;;8.20;4.03;;;16.70;99.90;;;;;;5366083;26;20082;-62
2024/04/15 08:00:43;;;;;;;5.88;4.38;;;16.80;99.90;;;;;;5323636;26;20004;-61
2024/04/15 08:03:11;;;;;;;5.97;4.27;;;16.90;99.90;;;;;;5354576;26;20012;-62
2024/04/15 08:05:37;;;;;;;6.32;4.28;;;16.90;99.90;;;;;;5354415;26;20356;-61
2024/04/15 08:08:06;;;;;;;8.40;4.50;;;17.00;99.90;;;;;;5350811;26;19997;-59
2024/04/15 08:10:33;;;;;;;6.43;4.53;;;17.20;99.90;;;;;;5362837;26;20015;-60
2024/04/15 08:13:00;;;;;;;6.75;4.32;;;17.50;99.90;;;;;;5350011;26;20005;-57
2024/04/15 08:15:27;;;;;;;6.95;4.47;;;18.00;99.90;;;;;;5351056;26;20081;-61
2024/04/15 08:17:54;;;;;;;8.23;4.40;;;18.30;99.90;;;;;;5356777;26;20008;-60
2024/04/15 08:20:22;;;;;;;7.68;4.57;;;18.40;99.90;;;;;;5357434;26;20004;-60
2024/04/15 08:22:49;;;;;;;13.07;5.65;;;18.40;99.90;;;;;;5356753;26;19996;-60
2024/04/15 08:25:17;;;;;;;10.30;4.68;;;18.50;99.90;;;;;;5362705;26;20527;-62
2024/04/15 08:27:43;;;;;;;6.45;3.92;;;18.90;99.90;;;;;;5356798;26;20527;-61
2024/04/15 08:30:10;;;;;;;8.68;4.22;;;19.20;99.90;;;;;;5365596;26;20001;-61
2024/04/15 08:32:38;;;;;;;12.10;4.05;;;19.60;99.90;;;;;;5331473;26;20047;-58
2024/04/15 08:35:05;;;;;;;6.22;4.00;;;19.60;99.90;;;;;;5350528;26;20016;-57
2024/04/15 08:37:33;;;;;;;7.20;4.07;;;19.50;99.90;;;;;;5359842;26;19997;-61
2024/04/15 08:39:59;;;;;;;6.30;4.22;;;19.50;99.90;;;;;;5361519;26;20015;-60
2024/04/15 08:42:49;;;;;;;6.30;4.00;;;19.30;99.90;;;;;;5356328;26;20004;-59
2024/04/15 08:45:19;;;;;;;7.35;3.63;;;19.10;99.90;;;;;;5356434;26;20005;-61
2024/04/15 08:47:53;;;;;;;5.97;3.53;;;19.10;99.90;;;;;;5348961;26;20048;-58
2024/04/15 08:50:21;;;;;;;9.10;4.47;;;19.00;99.90;;;;;;5354083;26;20086;-62
2024/04/15 08:52:49;;;;;;;5.68;3.58;;;18.90;99.90;;;;;;5367178;26;20000;-59
2024/04/15 08:55:16;;;;;;;7.25;3.58;;;18.70;99.90;;;;;;5352206;26;20000;-61
2024/04/15 08:57:45;;;;;;;7.72;3.45;;;19.00;99.90;;;;;;5365207;26;20019;-61
2024/04/15 09:00:19;;;;;;;3.80;3.23;;;19.10;99.90;;;;;;5358930;26;20020;-61
2024/04/15 09:02:48;;;;;;;4.88;3.60;;;19.20;99.90;;;;;;5365551;26;20325;-60
2024/04/15 09:05:16;;;;;;;5.53;3.75;;;19.40;99.90;;;;;;5355263;26;20016;-62
2024/04/15 09:07:47;;;;;;;7.13;3.55;;;19.70;99.90;;;;;;5366706;26;20329;-58
2024/04/15 09:10:15;;;;;;;7.60;3.78;;;19.60;99.90;;;;;;5369741;26;20004;-60
2024/04/15 09:12:43;;;;;;;4.68;3.03;;;19.50;99.90;;;;;;5363709;26;20008;-62
2024/04/15 09:15:12;;;;;;;5.40;3.58;;;19.50;99.90;;;;;;5357536;26;20036;-61
2024/04/15 09:17:39;;;;;;;7.88;3.50;;;19.60;99.90;;;;;;5352400;26;20044;-61
2024/04/15 09:20:07;;;;;;;5.75;3.58;;;19.50;99.90;;;;;;5358670;26;20353;-62
2024/04/15 09:22:36;;;;;;;5.65;3.58;;;19.30;99.90;;;;;;5361888;26;20000;-59
2024/04/15 09:25:05;;;;;;;4.82;3.28;;;19.00;99.90;;;;;;5359163;26;20380;-61
2024/04/15 09:27:32;;;;;;;6.03;2.80;;;18.90;99.90;;;;;;5363746;26;20012;-61
2024/04/15 09:29:59;;;;;;;4.82;2.65;;;19.00;99.90;;;;;;5362385;26;20008;-62
2024/04/15 09:32:27;;;;;;;5.93;2.70;;;19.00;99.90;;;;;;5365989;26;20321;-63
2024/04/15 09:34:59;;;;;;;6.38;2.78;;;19.40;99.90;;;;;;5354298;26;20053;-60
2024/04/15 09:37:27;;;;;;;6.90;3.00;;;19.90;99.90;;;;;;5365274;26;20004;-61
2024/04/15 09:39:55;;;;;;;6.38;2.20;;;20.30;99.90;;;;;;5363785;26;20001;-58
2024/04/15 09:42:22;;;;;;;4.72;2.30;;;20.20;99.90;;;;;;5365791;26;20597;-57
2024/04/15 09:44:49;;;;;;;5.07;2.55;;;20.00;99.90;;;;;;5360696;26;20019;-59
2024/04/15 09:47:17;;;;;;;4.32;2.92;;;19.60;99.90;;;;;;5361933;26;20019;-59
2024/04/15 09:49:46;;;;;;;4.43;2.55;;;19.40;99.90;;;;;;5358446;26;20048;-61
2024/04/15 09:52:30;;;;;;;4.85;2.70;;;19.60;99.90;;;;;;5363706;26;20074;-57
2024/04/15 09:55:12;;;;;;;6.43;3.03;;;19.70;99.90;;;;;;5362479;26;20381;-61
2024/04/15 09:57:43;;;;;;;6.10;2.60;;;19.80;99.90;;;;;;5368790;26;20005;-58
2024/04/15 10:00:15;;;;;;;6.97;3.60;;;19.80;99.90;;;;;;5360402;26;20016;-61
2024/04/15 10:02:52;;;;;;;6.57;3.10;;;19.60;99.90;;;;;;5360978;26;20001;-60
2024/04/15 10:05:24;;;;;;;5.57;3.00;;;19.60;99.90;;;;;;5366866;26;20000;-59
2024/04/15 10:07:53;;;;;;;8.43;2.60;;;19.80;99.90;;;;;;5357150;26;20005;-61
2024/04/15 10:10:21;;;;;;;6.55;2.83;;;19.70;99.90;;;;;;5358781;26;20020;-60
2024/04/15 10:12:52;;;;;;;4.50;2.95;;;19.70;99.90;;;;;;5360768;26;20019;-61
2024/04/15 10:15:21;;;;;;;3.75;2.72;;;19.80;99.90;;;;;;5357697;26;20046;-61
2024/04/15 10:18:00;;;;;;;4.47;2.65;;;20.00;99.90;;;;;;5354830;26;20055;-61
2024/04/15 10:20:34;;;;;;;7.45;3.10;;;20.20;99.90;;;;;;5362910;26;20000;-61
2024/04/15 10:23:04;;;;;;;7.07;3.10;;;20.40;99.90;;;;;;5339281;26;20007;-61
2024/04/15 10:25:38;;;;;;;7.90;3.03;;;20.50;99.90;;;;;;5356739;26;20044;-61
2024/04/15 10:28:06;;;;;;;4.05;2.58;;;20.50;99.90;;;;;;5360076;26;20013;-63
2024/04/15 10:30:36;;;;;;;6.78;2.78;;;20.50;99.90;;;;;;5366233;26;20005;-63
2024/04/15 10:33:06;;;;;;;7.20;3.10;;;20.70;99.90;;;;;;5371813;26;20000;-63
2024/04/15 10:35:35;;;;;;;9.27;3.10;;;20.60;99.90;;;;;;5371340;26;20000;-63
2024/04/15 10:38:04;;;;;;;7.28;2.90;;;20.40;99.90;;;;;;5359167;26;20041;-63
2024/04/15 10:40:40;;;;;;;5.97;2.42;;;20.40;99.90;;;;;;5372162;26;20005;-63
2024/04/15 10:43:07;;;;;;;5.25;2.47;;;20.40;99.90;;;;;;5365711;26;19996;-63
2024/04/15 10:45:33;;;;;;;5.47;2.92;;;20.50;99.90;;;;;;5368827;26;20008;-61
2024/04/15 10:48:00;;;;;;;6.00;2.70;;;20.50;99.90;;;;;;5366690;26;20009;-63
2024/04/15 10:50:27;;;;;;;5.60;2.70;;;20.30;99.90;;;;;;5372947;26;20353;-63
2024/04/15 10:52:54;;;;;;;6.40;2.47;;;19.80;99.90;;;;;;5361837;26;20019;-61
2024/04/15 10:55:22;;;;;;;5.22;2.10;;;19.40;99.90;;;;;;5368941;26;19996;-61
2024/04/15 10:57:50;;;;;;;6.20;2.88;;;19.20;99.90;;;;;;5360548;26;20033;-61
2024/04/15 11:00:22;;;;;;;5.43;3.10;;;19.00;99.90;;;;;;5360093;26;20004;-60
2024/04/15 11:02:53;;;;;;;3.13;2.38;;;19.00;99.90;;;;;;5332662;26;19996;-59
2024/04/15 11:05:22;;;;;;;9.15;2.78;;;19.00;99.90;;;;;;5353834;26;20702;-59
2024/04/15 11:07:53;;;;;;;6.15;3.05;;;19.00;99.90;;;;;;5347059;26;20005;-57
2024/04/15 11:10:20;;;;;;;5.70;2.58;;;19.20;99.90;;;;;;5355449;26;20001;-59
2024/04/15 11:12:52;;;;;;;8.13;2.67;;;19.60;99.90;;;;;;5355977;26;20029;-58
2024/04/15 11:15:20;;;;;;;8.10;2.58;;;20.00;99.90;;;;;;5364956;26;20015;-60
2024/04/15 11:17:55;;;;;;;7.63;2.38;;;20.00;99.90;;;;;;5351871;26;20015;-57
2024/04/15 11:20:23;;;;;;;8.25;2.10;;;20.00;99.90;;;;;;5354829;26;20004;-61
2024/04/15 11:22:51;;;;;;;6.03;1.90;;;20.00;99.90;;;;;;5361430;26;20027;-58
2024/04/15 11:25:19;;;;;;;5.38;2.00;;;19.80;99.90;;;;;;5331339;26;20628;-62
2024/04/15 11:27:50;;;;;;;7.93;2.10;;;19.80;99.90;;;;;;5356395;26;20360;-61
2024/04/15 11:30:21;;;;;;;7.20;2.70;;;19.90;99.90;;;;;;5355634;26;20019;-60
2024/04/15 11:32:50;;;;;;;7.13;2.25;;;20.00;99.90;;;;;;5363547;26;20011;-60
2024/04/15 11:35:17;;;;;;;7.22;2.75;;;20.40;99.90;;;;;;5358797;26;20004;-59
2024/04/15 11:37:53;;;;;;;4.47;2.22;;;20.60;99.90;;;;;;5353871;26;20012;-59
2024/04/15 11:40:20;;;;;;;4.80;1.75;;;20.70;99.90;;;;;;5366673;26;20041;-62
2024/04/15 11:42:47;;;;;;;3.85;1.80;;;20.80;99.90;;;;;;5360138;26;20011;-60
2024/04/15 11:45:15;;;;;;;4.70;2.20;;;20.80;99.90;;;;;;5352924;26;20057;-59
2024/04/15 11:47:42;;;;;;;4.20;2.00;;;21.10;99.90;;;;;;5356474;26;20074;-61
2024/04/15 11:50:10;;;;;;;5.53;1.45;;;21.10;99.90;;;;;;5351125;26;20013;-61
2024/04/15 11:52:37;;;;;;;4.88;1.88;;;21.50;99.90;;;;;;5360940;26;20004;-59
2024/04/15 11:55:13;;;;;;;8.45;2.30;;;21.50;99.90;;;;;;5361972;26;20077;-60
2024/04/15 11:57:40;;;;;;;4.53;1.73;;;21.10;99.90;;;;;;5356891;26;20004;-61
2024/04/15 12:00:09;;;;;;;4.50;1.92;;;20.80;99.90;;;;;;5363843;26;20324;-60
2024/04/15 12:02:43;;;;;;;5.00;1.90;;;20.60;99.90;;;;;;5364351;26;20008;-60
2024/04/15 12:05:12;;;;;;;4.82;1.90;;;20.50;99.90;;;;;;5353007;26;20008;-62
2024/04/15 12:07:40;;;;;;;4.82;1.88;;;20.40;99.90;;;;;;5359505;26;20794;-61
2024/04/15 12:10:08;;;;;;;5.10;2.00;;;20.40;99.90;;;;;;5359364;26;20009;-60
2024/04/15 12:12:35;;;;;;;3.42;1.52;;;20.60;99.90;;;;;;5364555;26;20032;-61
2024/04/15 12:15:02;;;;;;;7.70;1.58;;;20.50;99.90;;;;;;5358852;26;20332;-60
2024/04/15 12:17:32;;;;;;;;;;;20.60;99.90;;;;;;5360613;26;20036;-62
2024/04/15 12:19:59;;;;;;;4.32;1.52;;;20.60;99.90;;;;;;5363284;26;19937;-60
2024/04/15 12:22:25;;;;;;;3.30;1.50;;;20.90;99.90;;;;;;5365686;26;20008;-61
2024/04/15 12:24:52;;;;;;;4.32;1.75;;;20.60;99.90;;;;;;5355166;26;20019;-62
2024/04/15 12:27:33;;;;;;;5.88;1.75;;;20.80;99.90;;;;;;5323382;26;20019;-62
2024/04/15 12:30:05;;;;;;;4.25;1.80;;;20.90;99.90;;;;;;5355342;26;20450;-62
2024/04/15 12:32:32;;;;;;;2.78;1.60;;;20.80;99.90;;;;;;5365623;26;20086;-60
2024/04/15 12:34:59;;;;;;;3.22;1.40;;;20.70;99.90;;;;;;5358840;26;20016;-59
2024/04/15 12:37:26;;;;;;;5.40;1.60;;;20.30;99.90;;;;;;5356990;26;20086;-60
2024/04/15 12:39:53;;;;;;;5.43;1.90;;;19.90;99.90;;;;;;5330738;26;20000;-62
2024/04/15 12:42:20;;;;;;;3.17;1.90;;;19.70;99.90;;;;;;5362330;26;20027;-62
2024/04/15 12:44:47;;;;;;;7.05;2.15;;;19.50;99.90;;;;;;5366790;26;20902;-60
2024/04/15 12:47:14;;;;;;;4.25;2.17;;;19.50;99.90;;;;;;5369034;26;20000;-62
2024/04/15 12:49:41;;;;;;;5.50;1.83;;;19.80;99.90;;;;;;5373682;26;20008;-62
2024/04/15 12:52:08;;;;;;;4.40;1.70;;;19.90;99.90;;;;;;5364674;26;20013;-62